Rouen Vallée de Seine Airport

LFOP · Seine-Maritime, Normandy, Francja

Historia METAR LFOP · Rouen Airport

Poniżej widzisz METAR-y z ostatnich kilku dni. Wybierz rok, aby przeglądać starsze METAR-y, począwszy od roku 2007.

15 czerwca 2024

Czas Kod Pogoda Temp. Widoczność Sufit Wiatr METAR/SPECI
08:30
M
11 °C 10 km+ 1.600 ft 210° 210° 15 kt METAR LFOP 150630Z AUTO 21015KT 9999 BKN016 11/09 Q1006 TEMPO BKN012 BECMG 22015G25KT
08:00
M
11 °C 10 km+ 1.300 ft 210° 210° 14 kt METAR LFOP 150600Z AUTO 21014KT 9999 BKN013 BKN018 11/09 Q1006 BECMG 22015G25KT
07:30
M
10 °C 10 km+ 1.300 ft 210° 210° 13 kt METAR LFOP 150530Z AUTO 21013KT 9999 BKN013 BKN054 10/08 Q1006
07:00
V
9 °C 10 km+ - 210° 210° 11 kt METAR LFOP 150500Z AUTO 21011KT 9999 FEW015 SCT058 09/08 Q1006
06:30
V
9 °C 10 km+ - 210° 210° 11 kt METAR LFOP 150430Z AUTO 21011KT 9999 SCT015 09/08 Q1005
06:00
V
9 °C 10 km+ - 220° 220° 11 kt METAR LFOP 150400Z AUTO 22011KT 9999 FEW018 09/08 Q1005
05:30
V
9 °C 10 km+ - 220° 220° 13 kt METAR LFOP 150330Z AUTO 22013KT 9999 SCT020 SCT062 09/08 Q1005
05:00
V
9 °C 10 km+ - 230° 230° 13 kt METAR LFOP 150300Z AUTO 23013KT 9999 FEW018 SCT064 09/08 Q1004
04:30
M
10 °C 10 km+ 2.000 ft 220° 220° 11 kt METAR LFOP 150230Z AUTO 22011KT 9999 BKN020 BKN025 10/08 Q1004
04:00
M
10 °C 10 km+ 2.200 ft 220° 220° 12 kt METAR LFOP 150200Z AUTO 22012KT 9999 BKN022 10/09 Q1004
03:30
M
10 °C 10 km+ 1.600 ft 230° 230° 12 kt METAR LFOP 150130Z AUTO 23012KT 9999 SCT011 BKN016 BKN022 10/09 Q1003
03:00
M
11 °C 10 km+ 1.500 ft 250° 250° 9 kt METAR LFOP 150100Z AUTO 25009KT 200V290 9999 SCT009/// BKN015/// BKN020/// //////TCU 11/10 Q1003
02:30
V
11 °C 10 km+ 4.400 ft 210° 210° 12 kt METAR LFOP 150030Z AUTO 21012KT 9999 FEW017/// BKN044/// BKN058/// ///CB 11/10 Q1003
02:00
V
12 °C 10 km+ - 210° 210° 12 kt METAR LFOP 150000Z AUTO 21012KT 9999 -RA //////CB 12/10 Q1003
01:30
V
12 °C 10 km+ - 200° 200° 10 kt METAR LFOP 142330Z AUTO 20010KT 9999 -RA ///TCU 12/10 Q1003
01:00
V
12 °C 10 km+ 6.600 ft 200° 200° 10 kt METAR LFOP 142300Z AUTO 20010KT 9999 FEW045/// BKN066/// BKN220/// ///CB 12/11 Q1003
00:30
V
12 °C 10 km+ - 210° 210° 10 kt METAR LFOP 142230Z AUTO 21010KT 9999 SCT033 SCT041 12/11 Q1003
00:00
M
12 °C 10 km+ 2.600 ft 220° 220° 5 kt METAR LFOP 142200Z AUTO 22005KT 9999 -RA SCT018/// BKN026/// BKN034/// //////TCU 12/12 Q1003

14 czerwca 2024

Czas Kod Pogoda Temp. Widoczność Sufit Wiatr METAR/SPECI
23:30
V
13 °C 10 km+ 3.500 ft 250° 250° 9 kt METAR LFOP 142130Z AUTO 25009KT 210V300 9999 FEW011/// SCT020/// BKN035/// //////TCU 13/12 Q1003
23:00
V
13 °C 10 km+ 7.000 ft 190° 190° 9 kt METAR LFOP 142100Z AUTO 19009KT 9999 FEW046/// OVC070/// ///CB 13/12 Q1003
22:30
V
13 °C 10 km+ - 200° 200° 7 kt METAR LFOP 142030Z AUTO 20007KT CAVOK 13/12 Q1003
22:00
V
13 °C 10 km+ - 200° 200° 3 kt METAR LFOP 142000Z AUTO 20003KT CAVOK 13/11 Q1003
21:30
V
13 °C 10 km+ 7.200 ft 190° 190° 5 kt METAR LFOP 141930Z AUTO 19005KT 160V220 9999 FEW014/// BKN072/// OVC082/// //////CB 13/12 Q1003
21:00
I
13 °C 4,3 km 2.800 ft 250° 250° 5 kt METAR LFOP 141900Z AUTO 25005KT 210V280 9999 4300 +RA BKN028/// BKN040/// OVC054/// //////CB 13/12 Q1004 TEMPO 4000 SHRA BKN008 BKN012 BKN020CB
20:30
M
13 °C 10 km+ 3.000 ft 270° 270° 7 kt METAR LFOP 141830Z AUTO 27007KT 9999 FEW007/// BKN030/// OVC040/// //////CB 13/11 Q1004 TEMPO 4000 SHRA BKN008 BKN012 BKN020CB
20:00
I
15 °C 10 km+ 600 ft 200° 200° 8 kt METAR LFOP 141800Z AUTO 20008KT 170V250 9999 BKN006/// BKN050/// BKN076/// //////CB 15/14 Q1004 TEMPO 4000 SHRA
19:30
I
14 °C 10 km+ 600 ft 160° 160° 6 kt METAR LFOP 141730Z AUTO 16006KT 9999 BKN006/// BKN017/// BKN044/// //////CB 14/14 Q1003 TEMPO 4000 SHRA BECMG 23010KT
19:00
V
14 °C 10 km+ 5.800 ft 190° 190° 8 kt METAR LFOP 141700Z AUTO 19008KT 9999 FEW043 BKN058 BKN078 14/13 Q1004 TEMPO 1500 TSRAGS BKN008 BKN012 BKN020CB
18:30
V
14 °C 10 km+ 3.800 ft 170° 170° 5 kt METAR LFOP 141630Z AUTO 17005KT 9999 SCT008/// BKN038/// BKN048/// ///TCU 14/14 Q1004 TEMPO 1500 TSRAGS BKN008 BKN012 BKN020CB BECMG 23010KT
18:00
M
13 °C 5 km 5.400 ft 280° 280° 4 kt METAR LFOP 141600Z AUTO 28004KT 240V340 5000 RA BR FEW014/// BKN054/// OVC066/// //////CB 13/13 Q1005 TEMPO 1500 TSRAGS BKN008 BKN012 BKN020CB
17:30
V
13 °C 9 km 4.200 ft 270° 270° 4 kt METAR LFOP 141530Z AUTO 27004KT 240V310 9000 RA FEW007/// BKN042/// BKN050/// //////CB 13/13 Q1005 TEMPO 1500 TSRAGS BKN008 BKN012 BKN020CB
17:00
L
13 °C 1 km 600 ft 300° 300° 9 kt METAR LFOP 141500Z AUTO 30009KT 3900 1000 R22/1700D +RA BR BKN006/// BKN012/// BKN031/// //////CB 13/13 Q1005 TEMPO 1500 TSRA BKN012 BKN020CB BECMG 23010KT
16:30
V
16 °C 10 km+ 3.500 ft 260° 260° 10 - 21 kt METAR LFOP 141430Z AUTO 26010G21KT 180V310 9999 FEW016/// BKN035/// BKN045/// ///CB 16/12 Q1005 TEMPO 1500 TSRA BKN012 BKN020CB
16:00
V
20 °C 10 km+ 3.700 ft 200° 200° 19 kt METAR LFOP 141400Z AUTO 20019KT 9999 SCT031/// BKN037/// BKN062/// //////CB 20/13 Q1004 TEMPO 20015G25KT 1500 TSRA BKN012 BKN020CB
15:30
V
19 °C 10 km+ 6.600 ft 190° 190° 16 kt METAR LFOP 141330Z AUTO 19016KT 9999 FEW027/// SCT033/// BKN066/// ///CB 19/12 Q1005 TEMPO 20015G25KT 1500 TSRA BKN012 BKN020CB
15:00
V
18 °C 10 km+ 6.200 ft 190° 190° 15 kt METAR LFOP 141300Z AUTO 19015KT 9999 SCT028/// SCT049/// BKN062/// ///CB 18/13 Q1005 TEMPO 20015G25KT 4000 SHRA BKN012 BKN020CB
14:30
V
18 °C 10 km+ 5.200 ft 210° 210° 15 kt METAR LFOP 141230Z AUTO 21015KT 9999 FEW030/// SCT036/// OVC052/// //////CB 18/12 Q1006 TEMPO 20015G25KT 4000 SHRA BKN012 BKN020CB
14:00
V
18 °C 10 km+ 6.400 ft 220° 220° 15 kt METAR LFOP 141200Z AUTO 22015KT 9999 FEW020 OVC064 18/12 Q1006 TEMPO 20015G25KT 4000 SHRA BKN012 BKN020CB
13:30
V
16 °C 10 km+ 6.000 ft 230° 230° 6 kt METAR LFOP 141130Z AUTO 23006KT 9999 FEW009 BKN060 OVC070 16/14 Q1006 TEMPO 20015G25KT 4000 SHRA BKN012 BKN020CB
13:00
M
14 °C 10 km+ 2.800 ft 280° 280° 9 kt METAR LFOP 141100Z AUTO 28009KT 240V310 9999 SCT011/// BKN028/// BKN033/// ///TCU 14/13 Q1007 TEMPO 20015G25KT 4000 SHRA BKN012 BKN020CB
12:30
V
17 °C 10 km+ 3.100 ft 210° 210° 11 kt METAR LFOP 141030Z AUTO 21011KT 9999 FEW023 BKN031 BKN039 17/13 Q1006 TEMPO 20015G25KT 4000 SHRA BKN012 BKN020CB
12:00
V
15 °C 10 km+ 4.000 ft 210° 210° 9 kt METAR LFOP 141000Z AUTO 21009KT 9999 FEW018 SCT026 BKN040 15/13 Q1006 TEMPO 20015G25KT 4000 SHRA BKN012 BKN020CB
11:30
V
15 °C 10 km+ 3.600 ft 220° 220° 11 kt METAR LFOP 140930Z AUTO 22011KT 9999 -RADZ FEW017 SCT024 BKN036 15/12 Q1007 TEMPO 20015G25KT 4000 SHRA BKN012 BKN020CB
11:00
M
15 °C 10 km+ 2.000 ft 210° 210° 10 kt METAR LFOP 140900Z AUTO 21010KT 9999 SCT013 BKN020 BKN025 15/13 Q1007 TEMPO 20015G25KT 4000 SHRA BKN012 BKN020CB
10:30
M
15 °C 10 km+ 2.100 ft 210° 210° 10 kt METAR LFOP 140830Z AUTO 21010KT 9999 FEW009 SCT014 BKN021 15/13 Q1007 TEMPO 20015G25KT 4000 SHRA BKN012 BKN020CB
10:00
M
14 °C 10 km+ 1.500 ft 210° 210° 11 kt METAR LFOP 140800Z AUTO 21011KT 9999 SCT009 BKN015 BKN024 14/13 Q1007 TEMPO 3000 RADZ OVC004
09:30
I
13 °C 10 km+ 900 ft 220° 220° 9 kt METAR LFOP 140730Z AUTO 22009KT 9999 BKN009 BKN014 OVC019 13/13 Q1007 TEMPO 3000 RADZ OVC004
09:00
I
12 °C 10 km+ 700 ft 210° 210° 8 kt METAR LFOP 140700Z AUTO 21008KT 9999 OVC007 12/12 Q1006 TEMPO 3000 RADZ OVC004
08:30
I
12 °C 6 km 500 ft 210° 210° 8 kt METAR LFOP 140630Z AUTO 21008KT 6000 OVC005 12/12 Q1006 TEMPO 3000 RADZ
08:00
I
11 °C 10 km+ 500 ft 210° 210° 8 kt METAR LFOP 140600Z AUTO 21008KT 9999 OVC005 11/11 Q1006 TEMPO 3000 RADZ
07:30
L
11 °C 10 km+ 400 ft 200° 200° 9 kt METAR LFOP 140530Z AUTO 20009KT 9999 OVC004 11/11 Q1006 TEMPO 3000 RADZ
07:00
I
11 °C 10 km+ 500 ft 200° 200° 10 kt METAR LFOP 140500Z AUTO 20010KT 9999 OVC005 11/11 Q1006
06:30
I
11 °C 9 km 900 ft 190° 190° 11 kt METAR LFOP 140430Z AUTO 19011KT 9000 -RADZ BKN009 OVC015 11/10 Q1006
06:00
M
11 °C 10 km+ 1.000 ft 190° 190° 12 kt METAR LFOP 140400Z AUTO 19012KT 9999 BKN010 OVC015 11/10 Q1006
05:30
M
11 °C 10 km+ 1.200 ft 190° 190° 10 kt METAR LFOP 140330Z AUTO 19010KT 9999 OVC012 11/10 Q1007
05:00
M
10 °C 10 km+ 1.800 ft 180° 180° 10 kt METAR LFOP 140300Z AUTO 18010KT 9999 FEW011 OVC018 10/09 Q1007
04:30
M
10 °C 10 km+ 1.900 ft 180° 180° 11 kt METAR LFOP 140230Z AUTO 18011KT 9999 SCT013 BKN019 OVC024 10/09 Q1007
04:00
M
10 °C 10 km+ 1.800 ft 180° 180° 12 kt METAR LFOP 140200Z AUTO 18012KT 9999 OVC018 10/08 Q1007
03:30
M
11 °C 10 km+ 2.000 ft 180° 180° 13 kt METAR LFOP 140130Z AUTO 18013KT 9999 BKN020 OVC028 11/08 Q1008
03:00
M
11 °C 10 km+ 2.200 ft 170° 170° 13 kt METAR LFOP 140100Z AUTO 17013KT 9999 BKN022 OVC032 11/07 Q1008
02:30
M
11 °C 10 km+ 2.500 ft 170° 170° 13 kt METAR LFOP 140030Z AUTO 17013KT 9999 OVC025 11/07 Q1008
02:00
M
12 °C 10 km+ 2.700 ft 170° 170° 12 kt METAR LFOP 140000Z AUTO 17012KT 9999 OVC027 12/08 Q1008
01:30
M
12 °C 10 km+ 2.900 ft 170° 170° 11 kt METAR LFOP 132330Z AUTO 17011KT 140V200 9999 BKN029 OVC037 12/08 Q1009
01:00
V
11 °C 10 km+ 3.500 ft 150° 150° 10 kt METAR LFOP 132300Z AUTO 15010KT 9999 OVC035 11/09 Q1009
00:30
V
11 °C 10 km+ 4.100 ft 160° 160° 9 kt METAR LFOP 132230Z AUTO 16009KT 9999 -RA OVC041 11/09 Q1010
00:00
V
11 °C 10 km+ 5.400 ft 180° 180° 11 kt METAR LFOP 132200Z AUTO 18011KT 9999 -RA SCT047/// OVC054/// //////CB 11/08 Q1010

13 czerwca 2024

Czas Kod Pogoda Temp. Widoczność Sufit Wiatr METAR/SPECI
23:30
V
12 °C 10 km+ - 220° 220° 8 kt METAR LFOP 132130Z AUTO 22008KT 9999 RA //////TCU 12/10 Q1011
23:00
V
12 °C 10 km+ - 170° 170° 4 kt METAR LFOP 132100Z AUTO 17004KT 9999 -RA //////TCU 12/09 Q1011
22:30
V
13 °C 10 km+ - 160° 160° 5 kt METAR LFOP 132030Z AUTO 16005KT CAVOK 13/09 Q1011
22:00
V
13 °C 10 km+ - 180° 180° 4 kt METAR LFOP 132000Z AUTO 18004KT 150V220 9999 -RA NSC 13/10 Q1011
21:30
V
13 °C 10 km+ - 240° 240° 8 kt METAR LFOP 131930Z AUTO 24008KT 9999 -RA NSC 13/09 Q1012
21:00
V
14 °C 10 km+ - 240° 240° 9 kt METAR LFOP 131900Z AUTO 24009KT 9999 -RA NSC 14/10 Q1012
20:30
V
15 °C 10 km+ - 220° 220° 11 kt METAR LFOP 131830Z AUTO 22011KT 180V250 9999 -RA NSC 15/09 Q1012
20:00
V
16 °C 10 km+ 6.400 ft 180° 180° 8 kt METAR LFOP 131800Z AUTO 18008KT 130V240 9999 -RA FEW048 BKN064 OVC080 16/08 Q1011 TEMPO 25015G25KT 4500 -RA
19:30
V
17 °C 10 km+ - 170° 170° 8 kt METAR LFOP 131730Z AUTO 17008KT CAVOK 17/07 Q1012 TEMPO 25015G25KT 4500 -RA
19:00
V
18 °C 10 km+ - 190° 190° 9 kt METAR LFOP 131700Z AUTO 19009KT CAVOK 18/07 Q1012 NOSIG
18:00
V
18 °C 10 km+ - 200° 200° 15 kt METAR LFOP 131600Z AUTO 20015KT CAVOK 18/06 Q1013 NOSIG
17:30
V
18 °C 10 km+ - 190° 190° 12 kt METAR LFOP 131530Z AUTO 19012KT CAVOK 18/07 Q1013 NOSIG
17:00
V
18 °C 10 km+ - 180° 180° 13 kt METAR LFOP 131500Z AUTO 18013KT CAVOK 18/07 Q1013 NOSIG
16:30
V
18 °C 10 km+ - 190° 190° 11 kt METAR LFOP 131430Z AUTO 19011KT CAVOK 18/07 Q1014 NOSIG
16:00
V
18 °C 10 km+ - 200° 200° 15 kt METAR LFOP 131400Z AUTO 20015KT CAVOK 18/06 Q1014 NOSIG
15:30
V
18 °C 10 km+ - 190° 190° 12 kt METAR LFOP 131330Z AUTO 19012KT CAVOK 18/06 Q1015 NOSIG
15:00
V
17 °C 10 km+ - 180° 180° 9 kt METAR LFOP 131300Z AUTO 18009KT CAVOK 17/06 Q1015 NOSIG
14:30
V
17 °C 10 km+ - 200° 200° 10 kt METAR LFOP 131230Z AUTO 20010KT 160V230 CAVOK 17/06 Q1016 NOSIG
14:00
V
17 °C 10 km+ - 200° 200° 8 kt METAR LFOP 131200Z AUTO 20008KT 170V230 CAVOK 17/06 Q1016 NOSIG
13:30
V
17 °C 10 km+ - 220° 220° 6 kt METAR LFOP 131130Z AUTO 22006KT 130V260 CAVOK 17/06 Q1016 NOSIG
13:00
V
16 °C 10 km+ - 220° 220° 8 kt METAR LFOP 131100Z AUTO 22008KT 180V250 CAVOK 16/07 Q1016 NOSIG
12:30
V
16 °C 10 km+ - 210° 210° 10 kt METAR LFOP 131030Z AUTO 21010KT 170V260 CAVOK 16/06 Q1017 NOSIG
12:00
V
16 °C 10 km+ - 210° 210° 7 kt METAR LFOP 131000Z AUTO 21007KT 150V250 CAVOK 16/05 Q1017 NOSIG
11:30
V
15 °C 10 km+ - 210° 210° 9 kt METAR LFOP 130930Z AUTO 21009KT 160V230 9999 FEW039 15/06 Q1017 NOSIG
11:00
V
14 °C 10 km+ - 220° 220° 9 kt METAR LFOP 130900Z AUTO 22009KT 190V250 9999 FEW030 SCT250 14/05 Q1018 NOSIG
10:30
V
13 °C 10 km+ - 180° 180° 8 kt METAR LFOP 130830Z AUTO 18008KT 150V210 9999 FEW026 13/06 Q1017 NOSIG
10:00
V
13 °C 10 km+ - 190° 190° 7 kt METAR LFOP 130800Z AUTO 19007KT 160V220 CAVOK 13/07 Q1018 NOSIG
09:30
V
12 °C 10 km+ - 200° 200° 7 kt METAR LFOP 130730Z AUTO 20007KT CAVOK 12/07 Q1018 NOSIG
09:00
V
11 °C 10 km+ - 190° 190° 5 kt METAR LFOP 130700Z AUTO 19005KT CAVOK 11/07 Q1018 NOSIG
08:30
V
11 °C 10 km+ - 190° 190° 4 kt METAR LFOP 130630Z AUTO 19004KT 150V230 CAVOK 11/08 Q1018 NOSIG
08:00
V
9 °C 10 km+ - 170° 170° 4 kt METAR LFOP 130600Z AUTO 17004KT CAVOK 09/08 Q1019 NOSIG
Zgłoś zmianę